ANS8844 LEZL-LEVC
Flight info
| Callsign | ANS8844 |
|---|---|
| Flight time | N/A |
| Altitude | 28000 |
| Route | BUDIT M445 ETURA T252 XEBAR M985 ASTRO |
| Aircraft | CRJ2/M-SDFGIRW/S |
Departure
| Time | 2026-04-20 10:12 |
|---|---|
| Airport | Seville Airport (LEZL) |
Arrival
| Time | N/A |
|---|---|
| Airport | Valencia Airport (LEVC) |
| Time | Latitude | Longitude | Altitude | Speed | Heading |
|---|---|---|---|---|---|
| 2026-04-20 09:53 | 37.42211 | -5.89944 | 92 ft | 0 kts | 314° |
| 2026-04-20 09:56 | 37.42211 | -5.89943 | 92 ft | 1 kts | 314° |
| 2026-04-20 09:56 | 37.42195 | -5.89920 | 93 ft | 4 kts | 306° |
| 2026-04-20 09:56 | 37.42183 | -5.89891 | 93 ft | 4 kts | 287° |
| 2026-04-20 09:57 | 37.42183 | -5.89861 | 92 ft | 4 kts | 242° |
| 2026-04-20 09:57 | 37.42189 | -5.89853 | 94 ft | 0 kts | 224° |
| 2026-04-20 10:07 | 37.42189 | -5.89852 | 92 ft | 0 kts | 224° |
| 2026-04-20 10:07 | 37.42187 | -5.89855 | 92 ft | 3 kts | 224° |
| 2026-04-20 10:07 | 37.42147 | -5.89904 | 92 ft | 10 kts | 224° |
| 2026-04-20 10:07 | 37.42095 | -5.89967 | 93 ft | 11 kts | 224° |
| 2026-04-20 10:08 | 37.42054 | -5.90043 | 93 ft | 11 kts | 258° |
| 2026-04-20 10:08 | 37.42008 | -5.90096 | 94 ft | 9 kts | 203° |
| 2026-04-20 10:08 | 37.41981 | -5.90149 | 95 ft | 8 kts | 263° |
| 2026-04-20 10:08 | 37.41977 | -5.90219 | 93 ft | 9 kts | 266° |
| 2026-04-20 10:09 | 37.41976 | -5.90310 | 93 ft | 17 kts | 270° |
| 2026-04-20 10:09 | 37.41978 | -5.90475 | 92 ft | 20 kts | 271° |
| 2026-04-20 10:09 | 37.41978 | -5.90652 | 91 ft | 21 kts | 269° |
| 2026-04-20 10:09 | 37.41977 | -5.90839 | 89 ft | 22 kts | 270° |
| 2026-04-20 10:10 | 37.41973 | -5.91034 | 88 ft | 23 kts | 270° |
| 2026-04-20 10:10 | 37.41970 | -5.91236 | 87 ft | 21 kts | 261° |
| 2026-04-20 10:10 | 37.41954 | -5.91292 | 90 ft | 0 kts | 234° |
| 2026-04-20 10:10 | 37.41942 | -5.91305 | 87 ft | 7 kts | 213° |
| 2026-04-20 10:11 | 37.41872 | -5.91286 | 90 ft | 13 kts | 137° |
| 2026-04-20 10:11 | 37.41820 | -5.91193 | 88 ft | 13 kts | 118° |
| 2026-04-20 10:11 | 37.41791 | -5.91088 | 90 ft | 12 kts | 97° |
| 2026-04-20 10:11 | 37.41790 | -5.90899 | 92 ft | 51 kts | 90° |
| 2026-04-20 10:12 | 37.41795 | -5.90076 | 96 ft | 134 kts | 90° |
| 2026-04-20 10:12 | 37.41799 | -5.88643 | 415 ft | 175 kts | 89° |
| 2026-04-20 10:12 | 37.41814 | -5.87090 | 1403 ft | 182 kts | 88° |
| 2026-04-20 10:12 | 37.41851 | -5.85410 | 2170 ft | 205 kts | 89° |
| 2026-04-20 10:13 | 37.41867 | -5.83333 | 1988 ft | 279 kts | 90° |
| 2026-04-20 10:13 | 37.41973 | -5.80575 | 1655 ft | 350 kts | 83° |
| 2026-04-20 10:13 | 37.42426 | -5.77529 | 2431 ft | 351 kts | 76° |
| 2026-04-20 10:13 | 37.43317 | -5.74626 | 2884 ft | 367 kts | 66° |
| 2026-04-20 10:14 | 37.44563 | -5.71774 | 1039 ft | 373 kts | 64° |
| 2026-04-20 10:14 | 37.45429 | -5.68822 | 1103 ft | 342 kts | 74° |
| 2026-04-20 10:14 | 37.46187 | -5.66241 | 3317 ft | 292 kts | 69° |
| 2026-04-20 10:14 | 37.46909 | -5.63838 | 4616 ft | 280 kts | 77° |
| 2026-04-20 10:15 | 37.47378 | -5.61413 | 5176 ft | 308 kts | 73° |
| 2026-04-20 10:15 | 37.48403 | -5.58840 | 5133 ft | 348 kts | 61° |
| 2026-04-20 10:15 | 37.49691 | -5.56075 | 4818 ft | 381 kts | 61° |
| 2026-04-20 10:15 | 37.50930 | -5.53158 | 5195 ft | 374 kts | 65° |
| 2026-04-20 10:16 | 37.52021 | -5.50175 | 5740 ft | 377 kts | 68° |
| 2026-04-20 10:16 | 37.53045 | -5.47155 | 6206 ft | 381 kts | 69° |
| 2026-04-20 10:16 | 37.54085 | -5.44076 | 6602 ft | 384 kts | 68° |
| 2026-04-20 10:16 | 37.55151 | -5.40970 | 6979 ft | 387 kts | 68° |
| 2026-04-20 10:17 | 37.56232 | -5.37849 | 7324 ft | 390 kts | 68° |
| 2026-04-20 10:17 | 37.57317 | -5.34712 | 7908 ft | 383 kts | 68° |
| 2026-04-20 10:17 | 37.58352 | -5.31733 | 9531 ft | 360 kts | 68° |
| 2026-04-20 10:17 | 37.59330 | -5.28921 | 10969 ft | 343 kts | 67° |
| 2026-04-20 10:18 | 37.60261 | -5.26216 | 12205 ft | 330 kts | 67° |
| 2026-04-20 10:18 | 37.60887 | -5.23465 | 13188 ft | 327 kts | 82° |
| 2026-04-20 10:18 | 37.61103 | -5.20599 | 13897 ft | 331 kts | 87° |
| 2026-04-20 10:18 | 37.61236 | -5.17676 | 14512 ft | 337 kts | 86° |
| 2026-04-20 10:19 | 37.61394 | -5.14701 | 15135 ft | 342 kts | 87° |
| 2026-04-20 10:19 | 37.61548 | -5.12122 | 15709 ft | 345 kts | 86° |
| 2026-04-20 10:19 | 37.61743 | -5.09056 | 16409 ft | 348 kts | 86° |
| 2026-04-20 10:19 | 37.61951 | -5.06048 | 17097 ft | 349 kts | 86° |
| 2026-04-20 10:20 | 37.62165 | -5.02955 | 17812 ft | 351 kts | 86° |
| 2026-04-20 10:20 | 37.62381 | -4.99923 | 18489 ft | 351 kts | 86° |
| 2026-04-20 10:20 | 37.62590 | -4.96855 | 19081 ft | 352 kts | 86° |
| 2026-04-20 10:20 | 37.62800 | -4.93780 | 19693 ft | 352 kts | 86° |
| 2026-04-20 10:21 | 37.63010 | -4.90701 | 20297 ft | 352 kts | 86° |
| 2026-04-20 10:21 | 37.63218 | -4.87630 | 20892 ft | 352 kts | 86° |
| 2026-04-20 10:21 | 37.63427 | -4.84548 | 21480 ft | 352 kts | 86° |
| 2026-04-20 10:21 | 37.63634 | -4.81474 | 22069 ft | 352 kts | 86° |
| 2026-04-20 10:22 | 37.63774 | -4.79395 | 22464 ft | 352 kts | 86° |
| 2026-04-20 10:22 | 37.63978 | -4.76356 | 23039 ft | 352 kts | 86° |
| 2026-04-20 10:22 | 37.64170 | -4.73241 | 23603 ft | 352 kts | 86° |
| 2026-04-20 10:22 | 37.64370 | -4.70159 | 24067 ft | 352 kts | 86° |
| 2026-04-20 10:23 | 37.64573 | -4.67125 | 24518 ft | 352 kts | 86° |
| 2026-04-20 10:23 | 37.64776 | -4.64044 | 24951 ft | 352 kts | 86° |
| 2026-04-20 10:23 | 37.64979 | -4.60969 | 25401 ft | 352 kts | 86° |
| 2026-04-20 10:23 | 37.65183 | -4.57846 | 25777 ft | 354 kts | 86° |
| 2026-04-20 10:24 | 37.65384 | -4.54741 | 26134 ft | 356 kts | 86° |
| 2026-04-20 10:24 | 37.65585 | -4.51655 | 26484 ft | 358 kts | 86° |
| 2026-04-20 10:24 | 37.65790 | -4.48513 | 26824 ft | 361 kts | 86° |
| 2026-04-20 10:24 | 37.65994 | -4.45355 | 27153 ft | 363 kts | 86° |
| 2026-04-20 10:25 | 37.66198 | -4.42171 | 27478 ft | 365 kts | 86° |
| 2026-04-20 10:25 | 37.66403 | -4.38969 | 27776 ft | 368 kts | 86° |
| 2026-04-20 10:25 | 37.66612 | -4.35677 | 27925 ft | 375 kts | 86° |
| 2026-04-20 10:25 | 37.66820 | -4.32398 | 27995 ft | 385 kts | 86° |
| 2026-04-20 10:26 | 37.67268 | -4.25492 | 28035 ft | 405 kts | 85° |
| 2026-04-20 10:26 | 37.67724 | -4.18172 | 28046 ft | 425 kts | 85° |
| 2026-04-20 10:27 | 37.68195 | -4.10569 | 28039 ft | 444 kts | 86° |
| 2026-04-20 10:27 | 37.68678 | -4.02654 | 28045 ft | 460 kts | 85° |
| 2026-04-20 10:28 | 37.69172 | -3.94476 | 28045 ft | 475 kts | 86° |
| 2026-04-20 10:28 | 37.69675 | -3.86035 | 28041 ft | 488 kts | 85° |
| 2026-04-20 10:29 | 37.70185 | -3.77395 | 28048 ft | 499 kts | 86° |
| 2026-04-20 10:29 | 37.70704 | -3.68601 | 28079 ft | 506 kts | 86° |
| 2026-04-20 10:30 | 37.71209 | -3.59676 | 28089 ft | 512 kts | 86° |
| 2026-04-20 10:30 | 37.71718 | -3.50655 | 28061 ft | 517 kts | 86° |
| 2026-04-20 10:31 | 37.72229 | -3.41554 | 28050 ft | 520 kts | 86° |
| 2026-04-20 10:31 | 37.72727 | -3.32475 | 28045 ft | 522 kts | 86° |
| 2026-04-20 10:32 | 37.73223 | -3.23325 | 28063 ft | 512 kts | 86° |
| 2026-04-20 10:32 | 37.73708 | -3.14318 | 28085 ft | 515 kts | 86° |
| 2026-04-20 10:33 | 37.74187 | -3.05259 | 28110 ft | 518 kts | 86° |
| 2026-04-20 10:33 | 37.74649 | -2.96326 | 28064 ft | 492 kts | 86° |
| 2026-04-20 10:34 | 37.75095 | -2.87747 | 28047 ft | 480 kts | 86° |
| 2026-04-20 10:34 | 37.75412 | -2.83622 | 28023 ft | 464 kts | 77° |
| 2026-04-20 10:35 | 37.78052 | -2.76529 | 28036 ft | 436 kts | 54° |
| 2026-04-20 10:35 | 37.81844 | -2.70621 | 28045 ft | 437 kts | 43° |
| 2026-04-20 10:36 | 37.86218 | -2.65187 | 28049 ft | 434 kts | 43° |
| 2026-04-20 10:36 | 37.90399 | -2.59680 | 28056 ft | 435 kts | 45° |
| 2026-04-20 10:37 | 37.94581 | -2.54108 | 28061 ft | 438 kts | 44° |